Latest Weather Observations for Territory Grape Farm

IDD60801

Issued at 7:01 pm CST Wednesday 4 May 2016 (issued every 30 minutes, with the page automatically refreshed every 10 minutes)

About weather observations | Map of weather stations | Latest weather observations for NT | Other Formats
Station Details ID: 015643 Name: TERRITORY GRAPE FARM Lat: -22.45 Lon: 133.64 Height: 565.6 m
Data from the previous 72 hours. | See also: Recent months at Territory Grape Farm
Date/Time
CST
Temp
°C
App
Temp
°C
Dew
Point
Rel
Hum
%
Delta-T
°C
Wind Press
QNH
hPa
Press
MSL
hPa
Rain
since 9 am
mm
Dir
 
Spd
km/h
Gust
km/h
Spd
kts
Gust
kts
04/07:00pm 24.1 22.3 8.1 36 8.7 NE 7 9 4 5 1016.6 1014.9 0.0
04/06:30pm 25.3 23.6 8.3 34 9.4 NE 7 9 4 5 1016.1 1014.5 0.0
04/06:00pm 27.2 25.5 7.6 29 10.8 NE 6 7 3 4 1015.8 1014.1 0.0
04/05:30pm 29.0 27.0 7.0 25 12.1 ENE 7 15 4 8 1015.4 1013.7 0.0
04/05:00pm 29.8 28.7 7.1 24 12.5 NE 2 9 1 5 1015.2 1013.5 0.0
04/04:30pm 30.0 28.0 7.2 24 12.6 ENE 7 17 4 9 1015.4 1013.7 0.0
04/04:00pm 30.1 28.3 7.3 24 12.7 S 6 11 3 6 1015.5 1013.8 0.0
04/03:30pm 30.3 28.4 7.5 24 12.7 ESE 7 11 4 6 1015.7 1014.0 0.0
04/03:00pm 29.9 28.1 7.8 25 12.3 ENE 7 17 4 9 1015.8 1014.1 0.0
04/02:30pm 29.8 27.7 8.2 26 12.1 ESE 9 19 5 10 1015.9 1014.2 0.0
04/02:00pm 29.7 28.1 8.7 27 11.9 E 7 15 4 8 1016.5 1014.8 0.0
04/01:30pm 29.1 26.6 8.2 27 11.7 ESE 11 19 6 10 1017.1 1015.4 0.0
04/01:00pm 28.5 26.8 8.2 28 11.3 E 7 13 4 7 1017.7 1016.1 0.0
04/12:30pm 28.4 25.8 9.2 30 10.9 ENE 13 19 7 10 1018.3 1016.6 0.0
04/12:00pm 27.7 25.5 9.5 32 10.3 ESE 11 22 6 12 1018.8 1017.1 0.0
04/11:30am 27.1 24.4 11.6 38 9.1 ESE 17 22 9 12 1019.1 1017.5 0.0
04/11:00am 26.5 25.3 13.9 45 7.7 E 13 17 7 9 1019.7 1018.1 0.0
04/10:30am 25.7 24.8 14.8 51 6.7 E 13 17 7 9 1020.1 1018.4 0.0
04/10:00am 24.2 24.8 17.7 67 4.2 E 11 15 6 8 1020.4 1018.7 0.0
04/09:30am 23.0 24.0 17.7 72 3.4 ESE 9 13 5 7 1020.3 1018.6 0.0
04/09:00am 21.2 22.6 17.4 79 2.4 ESE 6 9 3 5 1020.1 1018.4 0.0
04/08:30am 19.8 21.4 17.8 88 1.3 SE 6 9 3 5 1020.1 1018.4 0.0
04/08:00am 17.4 18.5 16.6 95 0.5 SE 6 6 3 3 1019.7 1018.1 0.0
04/07:30am 16.2 17.1 16.2 100 0.0 SSE 6 7 3 4 1019.3 1017.7 0.0
04/07:00am 15.4 15.8 15.2 99 0.1 SE 7 9 4 5 1018.9 1017.2 0.0
04/06:30am 16.0 16.6 15.7 98 0.2 SSE 7 9 4 5 1018.7 1017.0 0.0
04/06:00am 16.2 17.0 15.9 98 0.2 SE 6 6 3 3 1018.3 1016.6 0.0
04/05:30am 15.9 16.7 14.9 94 0.6 E 4 4 2 2 1017.9 1016.3 0.0
04/05:00am 16.1 17.0 15.0 93 0.7 E 4 6 2 3 1017.8 1016.2 0.0
04/04:30am 16.0 16.3 14.5 91 0.9 ESE 6 6 3 3 1017.6 1016.0 0.0
04/04:00am 16.6 17.1 15.0 90 0.9 SE 6 7 3 4 1017.4 1015.7 0.0
04/03:30am 17.0 17.4 15.2 89 1.1 SE 7 7 4 4 1017.5 1015.8 0.0
04/03:00am 17.4 18.0 15.7 90 1.0 SE 7 9 4 5 1017.8 1016.2 0.0
04/02:30am 17.7 18.6 16.2 91 0.9 SE 6 7 3 4 1017.7 1016.1 0.0
04/02:00am 17.8 18.5 16.1 90 1.0 ESE 7 9 4 5 1017.6 1016.0 0.0
04/01:30am 18.4 19.5 16.6 89 1.1 E 6 7 3 4 1018.0 1016.4 0.0
04/01:00am 18.5 19.4 16.7 89 1.1 E 7 9 4 5 1018.4 1016.7 0.0
04/12:30am 18.6 19.6 16.4 87 1.3 SE 6 7 3 4 1018.6 1016.9 0.0
04/12:00am 19.2 20.1 16.6 85 1.6 SE 7 7 4 4 1018.6 1016.9 0.0
 
Date/Time
CST
Temp
°C
App
Temp
°C
Dew
Point
Rel
Hum
%
Delta-T
°C
Wind Press
QNH
hPa
Press
MSL
hPa
Rain
since 9 am
mm
Dir
 
Spd
km/h
Gust
km/h
Spd
kts
Gust
kts
03/11:30pm 20.5 21.9 17.3 82 2.0 SSE 6 7 3 4 1018.8 1017.1 0.0
03/11:00pm 21.0 22.3 17.2 79 2.4 SE 6 7 3 4 1018.9 1017.2 0.0
03/10:30pm 21.2 23.1 17.6 80 2.3 E 4 4 2 2 1019.0 1017.3 0.0
03/10:00pm 21.5 23.4 17.7 79 2.4 ENE 4 4 2 2 1019.1 1017.5 0.0
03/09:30pm 21.9 23.7 17.5 76 2.8 SE 4 4 2 2 1018.9 1017.2 0.0
03/09:00pm 22.1 24.2 17.2 74 3.1 SSE 2 4 1 2 1018.9 1017.2 0.0
03/08:30pm 22.2 24.7 17.3 74 3.1 CALM 0 0 0 0 1018.7 1017.0 0.0
03/08:00pm 22.4 24.5 17.1 72 3.3 ENE 2 4 1 2 1018.4 1016.7 0.0
03/07:30pm 22.4 24.1 17.1 72 3.3 ENE 4 4 2 2 1017.8 1016.2 0.0
03/07:00pm 23.0 24.6 16.8 68 3.9 ENE 4 4 2 2 1017.4 1015.7 0.0
03/06:30pm 24.0 25.6 16.8 64 4.5 ENE 4 4 2 2 1017.1 1015.4 0.0
03/06:00pm 24.7 25.6 16.7 61 5.0 ENE 7 9 4 5 1016.5 1014.8 0.0
03/05:30pm 25.3 26.2 16.7 59 5.4 ENE 7 9 4 5 1016.6 1014.9 0.0
03/05:00pm 25.5 27.3 16.4 57 5.7 SSE 2 6 1 3 1016.4 1014.7 0.0
03/04:30pm 25.7 27.1 16.5 56 5.8 SSW 4 6 2 3 1016.5 1014.8 0.0
03/04:00pm 25.7 27.1 16.5 56 5.8 NNE 4 9 2 5 1016.3 1014.6 0.0
03/03:30pm 25.5 27.4 16.6 58 5.6 ENE 2 6 1 3 1016.1 1014.5 0.0
03/03:00pm 25.6 27.5 16.7 58 5.6 NE 2 6 1 3 1016.5 1014.8 0.0
03/02:30pm 25.1 26.7 16.8 60 5.2 NNE 4 11 2 6 1016.5 1014.8 0.0
03/02:00pm 25.0 27.1 17.2 62 5.0 NNE 2 9 1 5 1017.1 1015.4 0.0
03/01:30pm 24.0 25.3 17.0 65 4.4 E 6 9 3 5 1017.6 1016.0 0.0
03/01:00pm 23.9 25.5 16.9 65 4.4 E 4 9 2 5 1018.2 1016.5 0.0
03/12:30pm 23.4 25.4 16.9 67 4.1 ENE 2 6 1 3 1018.7 1017.0 0.0
03/12:00pm 23.0 25.2 17.5 71 3.5 ESE 2 6 1 3 1019.3 1017.7 0.0
03/11:30am 22.6 24.1 17.7 74 3.1 SE 6 9 3 5 1019.5 1017.9 0.0
03/11:00am 21.9 23.7 17.5 76 2.8 ESE 4 6 2 3 1020.1 1018.4 0.0
03/10:30am 21.6 23.9 17.6 78 2.5 E 2 6 1 3 1020.3 1018.6 0.0
03/10:00am 21.4 23.2 18.2 82 2.0 E 6 7 3 4 1020.1 1018.4 0.0
03/09:30am 20.8 22.9 18.2 85 1.7 ESE 4 7 2 4 1020.1 1018.4 0.0
03/09:00am 19.9 21.9 17.9 88 1.3 ESE 4 6 2 3 1019.6 1018.0 1.4
03/08:30am 19.6 21.8 18.3 92 0.8 ESE 4 6 2 3 1019.4 1017.8 1.4
03/08:00am 18.9 20.7 18.4 97 0.3 E 6 6 3 3 1018.8 1017.1 1.4
03/07:30am 18.4 20.5 18.1 98 0.2 SE 4 6 2 3 1018.6 1016.9 1.4
03/07:00am 18.2 20.2 17.9 98 0.2 SSE 4 4 2 2 1018.6 1016.9 1.4
03/06:30am 18.3 21.0 17.8 97 0.3 CALM 0 0 0 0 1018.0 1016.4 1.4
03/06:00am 18.5 21.3 17.9 96 0.4 CALM 0 0 0 0 1017.6 1016.0 1.4
03/05:30am 18.4 20.7 17.8 96 0.4 SW 2 7 1 4 1017.6 1016.0 1.4
03/05:00am 18.4 21.1 17.8 96 0.4 CALM 0 0 0 0 1017.1 1015.4 1.4
03/04:30am 18.5 21.3 18.0 97 0.3 CALM 0 0 0 0 1017.1 1015.4 1.4
03/04:00am 18.6 21.4 17.9 96 0.4 CALM 0 0 0 0 1017.3 1015.6 1.4
03/03:30am 18.5 20.7 17.5 94 0.6 WSW 2 6 1 3 1017.4 1015.7 1.4
03/03:00am 18.5 21.2 17.7 95 0.5 CALM 0 0 0 0 1017.4 1015.7 1.4
03/02:30am 18.4 20.6 17.4 94 0.6 SSE 2 6 1 3 1017.8 1016.2 1.4
03/02:00am 18.5 19.8 17.2 92 0.8 SSW 6 6 3 3 1017.6 1016.0 1.4
03/01:30am 18.3 - 17.1 93 0.7 - - - - - 1018.2 1016.5 -
03/01:00am 18.3 19.6 17.1 93 0.7 NNE 6 7 3 4 1018.2 1016.5 1.4
03/12:30am 18.2 19.6 16.5 90 1.0 E 4 6 2 3 1018.0 1016.4 1.4
03/12:00am 18.4 19.2 16.4 88 1.2 E 7 7 4 4 1018.3 1016.6 1.4
 
Date/Time
CST
Temp
°C
App
Temp
°C
Dew
Point
Rel
Hum
%
Delta-T
°C
Wind Press
QNH
hPa
Press
MSL
hPa
Rain
since 9 am
mm
Dir
 
Spd
km/h
Gust
km/h
Spd
kts
Gust
kts
02/11:30pm 19.1 20.2 16.5 85 1.6 E 6 7 3 4 1018.7 1017.0 1.4
02/11:00pm 19.8 20.8 16.8 83 1.9 E 7 11 4 6 1018.8 1017.1 1.4
02/10:30pm 20.1 20.3 16.7 81 2.1 E 11 15 6 8 1018.6 1016.9 1.4
02/10:00pm 20.4 21.0 16.8 80 2.2 ENE 9 15 5 8 1018.7 1017.0 1.4
02/09:30pm 20.6 20.9 17.0 80 2.2 ENE 11 17 6 9 1018.5 1016.8 1.4
02/09:00pm 20.7 21.6 17.5 82 2.0 ENE 9 13 5 7 1018.7 1017.0 1.4
02/08:30pm 20.8 22.4 17.8 83 1.9 NE 6 7 3 4 1018.6 1016.9 1.4
02/08:00pm 20.7 22.1 17.7 83 1.9 NNE 7 9 4 5 1018.3 1016.6 1.4
02/07:30pm 20.8 22.6 18.2 85 1.7 NE 6 7 3 4 1017.9 1016.3 1.4
02/07:00pm 21.3 24.2 18.1 82 2.0 CALM 0 0 0 0 1017.8 1016.2 1.4
02/06:30pm 21.6 24.3 17.8 79 2.4 CALM 0 0 0 0 1017.5 1015.8 1.4
02/06:00pm 21.7 23.2 17.5 77 2.6 ESE 6 9 3 5 1017.0 1015.3 1.4
02/05:30pm 21.6 22.4 17.2 76 2.8 ENE 9 13 5 7 1016.7 1015.0 1.4
02/05:00pm 23.2 23.8 15.8 63 4.6 ENE 7 9 4 5 1016.7 1015.0 1.4
02/04:30pm 23.4 22.8 15.7 62 4.8 ENE 13 17 7 9 1016.6 1014.9 1.4
02/04:00pm 23.4 22.7 15.5 61 4.9 E 13 19 7 10 1016.7 1015.0 1.4
02/03:30pm 23.6 23.1 15.9 62 4.8 E 13 17 7 9 1016.9 1015.2 1.4
02/03:00pm 23.4 22.9 16.0 63 4.6 E 13 19 7 10 1016.8 1015.1 1.2
02/02:30pm 23.1 22.6 16.9 68 3.9 E 15 22 8 12 1016.8 1015.1 1.2
02/02:00pm 22.7 22.6 16.9 70 3.6 E 13 17 7 9 1017.4 1015.7 1.2
02/01:30pm 21.7 21.0 16.4 72 3.3 SE 15 19 8 10 1017.9 1016.3 1.2
02/01:00pm 21.0 21.6 17.6 81 2.1 E 11 17 6 9 1018.3 1016.6 1.2
02/12:30pm 19.4 20.0 16.8 85 1.6 NNE 9 11 5 6 1019.1 1017.5 1.2
02/12:00pm 22.3 20.8 15.2 64 4.3 ESE 17 20 9 11 1019.0 1017.3 0.2
02/11:30am 19.8 20.4 15.7 77 2.5 E 7 13 4 7 1019.5 1017.9 0.2
02/11:00am 20.5 19.9 13.5 64 4.1 ENE 9 15 5 8 1020.3 1018.6 0.0
02/10:30am 20.4 19.8 13.6 65 4.0 ENE 9 13 5 7 1020.4 1018.7 0.0
02/10:00am 20.7 20.6 13.4 63 4.3 ESE 6 9 3 5 1020.2 1018.5 0.0
02/09:30am 19.4 19.2 14.6 74 2.9 SSE 9 13 5 7 1019.6 1018.0 0.0
02/09:00am 18.2 17.0 14.1 77 2.4 SE 13 19 7 10 1019.3 1017.7 1.8
02/08:30am 17.0 14.7 11.9 72 2.9 SW 15 20 8 11 1019.9 1018.3 1.4
02/08:00am 20.8 17.1 7.8 43 6.9 SW 17 30 9 16 1019.9 1018.3 0.0
02/07:30am 20.6 18.1 8.3 45 6.6 ESE 11 17 6 9 1018.2 1016.5 0.0
02/07:00am 18.5 16.7 7.9 50 5.6 SE 7 7 4 4 1017.9 1016.3 0.0
02/06:30am 19.1 17.3 7.8 48 5.9 SSE 7 13 4 7 1017.8 1016.2 0.0
02/06:00am 19.5 16.0 7.3 45 6.4 SW 15 22 8 12 1017.7 1016.1 0.0
02/05:30am 19.9 17.9 7.3 44 6.6 S 7 9 4 5 1016.9 1015.2 0.0
02/05:00am 20.1 18.2 7.5 44 6.6 S 7 11 4 6 1016.6 1014.9 0.0
02/04:30am 19.9 17.9 7.0 43 6.7 SSE 7 9 4 5 1016.5 1014.8 0.0
02/04:00am 21.0 18.6 6.9 40 7.4 SSE 9 11 5 6 1016.5 1014.8 0.0
02/03:30am 21.1 18.8 7.3 41 7.3 SSE 9 13 5 7 1016.5 1014.8 0.0
02/03:00am 21.3 19.3 7.2 40 7.4 S 7 9 4 5 1016.7 1015.0 0.0
02/02:30am 21.2 19.5 7.4 41 7.3 S 6 7 3 4 1016.7 1015.0 0.0
02/02:00am 21.0 19.5 6.9 40 7.4 SSE 4 6 2 3 1016.8 1015.1 0.0
02/01:30am 21.0 19.8 8.0 43 6.9 S 4 9 2 5 1017.2 1015.5 0.0
02/01:00am 21.2 19.7 6.7 39 7.6 SSE 4 6 2 3 1017.1 1015.4 0.0
02/12:30am 21.6 19.5 6.7 38 7.8 SSE 7 9 4 5 1017.1 1015.4 0.0
02/12:00am 22.4 20.0 7.0 37 8.1 SSE 9 13 5 7 1017.3 1015.6 0.0
 
Date/Time
CST
Temp
°C
App
Temp
°C
Dew
Point
Rel
Hum
%
Delta-T
°C
Wind Press
QNH
hPa
Press
MSL
hPa
Rain
since 9 am
mm
Dir
 
Spd
km/h
Gust
km/h
Spd
kts
Gust
kts
01/11:30pm 23.0 20.2 7.1 36 8.5 SE 11 15 6 8 1017.1 1015.4 0.0
01/11:00pm 23.4 20.2 6.7 34 8.8 SSE 13 19 7 10 1017.4 1015.7 0.0
01/10:30pm 24.4 21.1 6.6 32 9.5 SSE 13 20 7 11 1017.5 1015.8 0.0
01/10:00pm 24.9 21.4 7.1 32 9.6 SE 15 20 8 11 1017.2 1015.5 0.0
01/09:30pm 25.5 22.0 7.1 31 9.9 SE 15 20 8 11 1016.9 1015.2 0.0
01/09:00pm 26.2 22.2 6.8 29 10.4 SE 17 24 9 13 1016.6 1014.9 0.0
01/08:30pm 26.9 22.7 7.4 29 10.7 SE 19 24 10 13 1016.4 1014.7 0.0
01/08:00pm 28.0 24.0 8.3 29 11.0 SE 19 24 10 13 1015.9 1014.2 0.0
01/07:30pm 28.4 26.4 10.1 32 10.5 E 11 15 6 8 1015.5 1013.8 0.0

Other Formats:

Comma delimited format used in spreadsheet applications
http://www.bom.gov.au/fwo/IDD60801/IDD60801.94328.axf

JavaScript Object Notation format (JSON) in row-major order
http://www.bom.gov.au/fwo/IDD60801/IDD60801.94328.json